sensor_id;sensor_type;location;lat;lon;timestamp;temperature;humidity
10300;DHT22;5195;48.562;9.192;2023-12-20T00:01:12;8.50;54.00
10300;DHT22;5195;48.562;9.192;2023-12-20T00:03:38;8.70;53.70
10300;DHT22;5195;48.562;9.192;2023-12-20T00:06:03;8.60;53.80
10300;DHT22;5195;48.562;9.192;2023-12-20T00:08:29;8.30;54.20
10300;DHT22;5195;48.562;9.192;2023-12-20T00:10:54;8.10;54.70
10300;DHT22;5195;48.562;9.192;2023-12-20T00:13:20;7.90;55.10
10300;DHT22;5195;48.562;9.192;2023-12-20T00:15:46;7.70;55.80
10300;DHT22;5195;48.562;9.192;2023-12-20T00:18:12;7.70;55.80
10300;DHT22;5195;48.562;9.192;2023-12-20T00:20:37;7.60;56.10
10300;DHT22;5195;48.562;9.192;2023-12-20T00:23:03;7.50;56.30
10300;DHT22;5195;48.562;9.192;2023-12-20T00:25:29;7.50;56.60
10300;DHT22;5195;48.562;9.192;2023-12-20T00:27:55;8.10;55.80
10300;DHT22;5195;48.562;9.192;2023-12-20T00:30:23;8.40;55.10
10300;DHT22;5195;48.562;9.192;2023-12-20T00:32:49;8.70;54.50
10300;DHT22;5195;48.562;9.192;2023-12-20T00:35:18;8.70;54.40
10300;DHT22;5195;48.562;9.192;2023-12-20T00:37:45;8.60;54.40
10300;DHT22;5195;48.562;9.192;2023-12-20T00:40:10;8.70;54.40
10300;DHT22;5195;48.562;9.192;2023-12-20T00:42:37;8.90;54.00
10300;DHT22;5195;48.562;9.192;2023-12-20T00:45:02;8.80;54.10
10300;DHT22;5195;48.562;9.192;2023-12-20T00:47:28;8.80;54.00
10300;DHT22;5195;48.562;9.192;2023-12-20T00:49:53;9.00;53.70
10300;DHT22;5195;48.562;9.192;2023-12-20T00:52:19;9.20;53.30
10300;DHT22;5195;48.562;9.192;2023-12-20T00:54:45;9.30;52.80
10300;DHT22;5195;48.562;9.192;2023-12-20T00:57:11;9.50;52.50
10300;DHT22;5195;48.562;9.192;2023-12-20T00:59:37;9.30;52.80
10300;DHT22;5195;48.562;9.192;2023-12-20T01:02:02;9.30;53.60
10300;DHT22;5195;48.562;9.192;2023-12-20T01:04:29;9.20;52.90
10300;DHT22;5195;48.562;9.192;2023-12-20T01:06:54;9.20;52.90
10300;DHT22;5195;48.562;9.192;2023-12-20T01:09:20;9.20;53.10
10300;DHT22;5195;48.562;9.192;2023-12-20T01:11:46;9.20;53.20
10300;DHT22;5195;48.562;9.192;2023-12-20T01:14:12;9.20;53.80
10300;DHT22;5195;48.562;9.192;2023-12-20T01:16:40;9.10;53.70
10300;DHT22;5195;48.562;9.192;2023-12-20T01:19:06;9.10;53.70
10300;DHT22;5195;48.562;9.192;2023-12-20T01:21:31;8.80;54.10
10300;DHT22;5195;48.562;9.192;2023-12-20T01:23:58;8.80;54.40
10300;DHT22;5195;48.562;9.192;2023-12-20T01:26:25;8.50;55.00
10300;DHT22;5195;48.562;9.192;2023-12-20T01:28:50;8.50;54.90
10300;DHT22;5195;48.562;9.192;2023-12-20T01:31:16;8.60;55.60
10300;DHT22;5195;48.562;9.192;2023-12-20T01:33:42;8.80;55.80
10300;DHT22;5195;48.562;9.192;2023-12-20T01:36:08;8.80;55.80
10300;DHT22;5195;48.562;9.192;2023-12-20T01:38:34;8.80;56.30
10300;DHT22;5195;48.562;9.192;2023-12-20T01:41:01;8.90;56.60
10300;DHT22;5195;48.562;9.192;2023-12-20T01:43:26;8.80;56.40
10300;DHT22;5195;48.562;9.192;2023-12-20T01:45:52;8.50;56.90
10300;DHT22;5195;48.562;9.192;2023-12-20T01:48:17;8.50;58.00
10300;DHT22;5195;48.562;9.192;2023-12-20T01:50:43;8.70;58.50
10300;DHT22;5195;48.562;9.192;2023-12-20T01:53:08;8.60;58.20
10300;DHT22;5195;48.562;9.192;2023-12-20T01:55:34;8.30;58.50
10300;DHT22;5195;48.562;9.192;2023-12-20T01:57:59;8.40;59.50
10300;DHT22;5195;48.562;9.192;2023-12-20T02:00:26;8.30;59.30
10300;DHT22;5195;48.562;9.192;2023-12-20T02:02:51;8.30;60.00
10300;DHT22;5195;48.562;9.192;2023-12-20T02:05:17;8.30;59.90
10300;DHT22;5195;48.562;9.192;2023-12-20T02:07:43;8.00;60.00
10300;DHT22;5195;48.562;9.192;2023-12-20T02:10:08;7.90;60.50
10300;DHT22;5195;48.562;9.192;2023-12-20T02:12:34;7.90;61.10
10300;DHT22;5195;48.562;9.192;2023-12-20T02:15:00;8.20;61.10
10300;DHT22;5195;48.562;9.192;2023-12-20T02:17:25;8.40;60.70
10300;DHT22;5195;48.562;9.192;2023-12-20T02:19:51;8.30;60.40
10300;DHT22;5195;48.562;9.192;2023-12-20T02:22:17;7.90;61.30
10300;DHT22;5195;48.562;9.192;2023-12-20T02:24:43;7.80;61.20
10300;DHT22;5195;48.562;9.192;2023-12-20T02:27:08;7.60;61.70
10300;DHT22;5195;48.562;9.192;2023-12-20T02:29:35;7.80;62.20
10300;DHT22;5195;48.562;9.192;2023-12-20T02:32:00;7.80;62.20
10300;DHT22;5195;48.562;9.192;2023-12-20T02:34:27;7.60;62.40
10300;DHT22;5195;48.562;9.192;2023-12-20T02:36:56;7.50;62.80
10300;DHT22;5195;48.562;9.192;2023-12-20T02:39:22;7.40;63.10
10300;DHT22;5195;48.562;9.192;2023-12-20T02:41:48;7.30;63.40
10300;DHT22;5195;48.562;9.192;2023-12-20T02:44:15;7.20;63.70
10300;DHT22;5195;48.562;9.192;2023-12-20T02:46:42;7.10;63.90
10300;DHT22;5195;48.562;9.192;2023-12-20T02:49:07;7.10;64.10
10300;DHT22;5195;48.562;9.192;2023-12-20T02:51:33;7.10;64.40
10300;DHT22;5195;48.562;9.192;2023-12-20T02:53:58;7.00;64.60
10300;DHT22;5195;48.562;9.192;2023-12-20T02:56:24;7.20;65.20
10300;DHT22;5195;48.562;9.192;2023-12-20T02:58:50;7.60;65.00
10300;DHT22;5195;48.562;9.192;2023-12-20T03:01:16;8.00;64.40
10300;DHT22;5195;48.562;9.192;2023-12-20T03:03:42;8.00;63.80
10300;DHT22;5195;48.562;9.192;2023-12-20T03:06:09;8.10;64.10
10300;DHT22;5195;48.562;9.192;2023-12-20T03:08:34;8.30;63.70
10300;DHT22;5195;48.562;9.192;2023-12-20T03:11:02;8.40;62.90
10300;DHT22;5195;48.562;9.192;2023-12-20T03:13:27;8.40;62.90
10300;DHT22;5195;48.562;9.192;2023-12-20T03:15:53;8.20;63.40
10300;DHT22;5195;48.562;9.192;2023-12-20T03:18:18;8.20;64.00
10300;DHT22;5195;48.562;9.192;2023-12-20T03:20:45;8.00;64.20
10300;DHT22;5195;48.562;9.192;2023-12-20T03:23:11;8.00;64.60
10300;DHT22;5195;48.562;9.192;2023-12-20T03:25:37;8.00;64.60
10300;DHT22;5195;48.562;9.192;2023-12-20T03:28:02;8.00;64.20
10300;DHT22;5195;48.562;9.192;2023-12-20T03:30:29;8.10;64.00
10300;DHT22;5195;48.562;9.192;2023-12-20T03:32:54;8.10;64.30
10300;DHT22;5195;48.562;9.192;2023-12-20T03:35:20;8.20;64.50
10300;DHT22;5195;48.562;9.192;2023-12-20T03:37:45;8.10;64.20
10300;DHT22;5195;48.562;9.192;2023-12-20T03:40:11;8.20;64.30
10300;DHT22;5195;48.562;9.192;2023-12-20T03:42:36;8.20;64.20
10300;DHT22;5195;48.562;9.192;2023-12-20T03:45:03;8.40;64.00
10300;DHT22;5195;48.562;9.192;2023-12-20T03:47:29;8.40;63.70
10300;DHT22;5195;48.562;9.192;2023-12-20T03:49:56;8.40;63.70
10300;DHT22;5195;48.562;9.192;2023-12-20T03:52:22;8.40;64.00
10300;DHT22;5195;48.562;9.192;2023-12-20T03:54:50;8.30;63.90
10300;DHT22;5195;48.562;9.192;2023-12-20T03:57:17;8.30;64.00
10300;DHT22;5195;48.562;9.192;2023-12-20T03:59:44;8.20;63.90
10300;DHT22;5195;48.562;9.192;2023-12-20T04:02:11;8.10;64.80
10300;DHT22;5195;48.562;9.192;2023-12-20T04:04:36;8.10;64.80
10300;DHT22;5195;48.562;9.192;2023-12-20T04:07:02;8.30;64.30
10300;DHT22;5195;48.562;9.192;2023-12-20T04:09:27;8.50;63.70
10300;DHT22;5195;48.562;9.192;2023-12-20T04:11:53;8.40;63.40
10300;DHT22;5195;48.562;9.192;2023-12-20T04:14:20;8.10;63.90
10300;DHT22;5195;48.562;9.192;2023-12-20T04:16:46;8.10;64.40
10300;DHT22;5195;48.562;9.192;2023-12-20T04:19:12;8.40;64.00
10300;DHT22;5195;48.562;9.192;2023-12-20T04:21:37;8.30;63.70
10300;DHT22;5195;48.562;9.192;2023-12-20T04:24:05;8.30;64.10
10300;DHT22;5195;48.562;9.192;2023-12-20T04:26:30;8.20;63.80
10300;DHT22;5195;48.562;9.192;2023-12-20T04:28:56;8.20;64.00
10300;DHT22;5195;48.562;9.192;2023-12-20T04:31:23;8.20;64.20
10300;DHT22;5195;48.562;9.192;2023-12-20T04:33:49;8.20;64.30
10300;DHT22;5195;48.562;9.192;2023-12-20T04:36:15;8.30;63.50
10300;DHT22;5195;48.562;9.192;2023-12-20T04:38:41;8.30;63.50
10300;DHT22;5195;48.562;9.192;2023-12-20T04:41:07;8.00;63.80
10300;DHT22;5195;48.562;9.192;2023-12-20T04:43:33;7.90;64.00
10300;DHT22;5195;48.562;9.192;2023-12-20T04:45:58;7.90;64.00
10300;DHT22;5195;48.562;9.192;2023-12-20T04:48:24;8.00;64.30
10300;DHT22;5195;48.562;9.192;2023-12-20T04:50:50;7.70;64.50
10300;DHT22;5195;48.562;9.192;2023-12-20T04:53:16;7.70;64.50
10300;DHT22;5195;48.562;9.192;2023-12-20T04:55:41;7.80;64.80
10300;DHT22;5195;48.562;9.192;2023-12-20T04:58:07;8.10;64.30
10300;DHT22;5195;48.562;9.192;2023-12-20T05:00:33;7.80;64.30
10300;DHT22;5195;48.562;9.192;2023-12-20T05:02:59;7.80;64.30
10300;DHT22;5195;48.562;9.192;2023-12-20T05:05:24;7.60;64.90
10300;DHT22;5195;48.562;9.192;2023-12-20T05:07:50;7.70;65.10
10300;DHT22;5195;48.562;9.192;2023-12-20T05:10:15;7.70;64.80
10300;DHT22;5195;48.562;9.192;2023-12-20T05:12:41;7.80;64.80
10300;DHT22;5195;48.562;9.192;2023-12-20T05:15:07;7.80;64.60
10300;DHT22;5195;48.562;9.192;2023-12-20T05:17:34;7.70;65.10
10300;DHT22;5195;48.562;9.192;2023-12-20T05:20:00;8.00;64.30
10300;DHT22;5195;48.562;9.192;2023-12-20T05:22:26;8.00;64.30
10300;DHT22;5195;48.562;9.192;2023-12-20T05:24:51;8.00;63.90
10300;DHT22;5195;48.562;9.192;2023-12-20T05:27:17;8.10;63.90
10300;DHT22;5195;48.562;9.192;2023-12-20T05:29:44;8.30;63.40
10300;DHT22;5195;48.562;9.192;2023-12-20T05:32:09;8.40;62.70
10300;DHT22;5195;48.562;9.192;2023-12-20T05:34:35;8.60;62.20
10300;DHT22;5195;48.562;9.192;2023-12-20T05:37:00;8.50;62.10
10300;DHT22;5195;48.562;9.192;2023-12-20T05:39:27;8.20;62.30
10300;DHT22;5195;48.562;9.192;2023-12-20T05:41:52;8.20;62.30
10300;DHT22;5195;48.562;9.192;2023-12-20T05:44:18;8.00;62.90
10300;DHT22;5195;48.562;9.192;2023-12-20T05:46:43;8.00;63.20
10300;DHT22;5195;48.562;9.192;2023-12-20T05:49:09;7.90;63.10
10300;DHT22;5195;48.562;9.192;2023-12-20T05:51:35;8.00;63.30
10300;DHT22;5195;48.562;9.192;2023-12-20T05:54:01;7.70;63.50
10300;DHT22;5195;48.562;9.192;2023-12-20T05:56:28;7.70;63.50
10300;DHT22;5195;48.562;9.192;2023-12-20T05:58:53;7.50;64.00
10300;DHT22;5195;48.562;9.192;2023-12-20T06:01:19;7.40;64.60
10300;DHT22;5195;48.562;9.192;2023-12-20T06:03:45;7.20;64.80
10300;DHT22;5195;48.562;9.192;2023-12-20T06:06:11;7.10;65.30
10300;DHT22;5195;48.562;9.192;2023-12-20T06:08:37;7.30;65.60
10300;DHT22;5195;48.562;9.192;2023-12-20T06:11:02;7.60;64.80
10300;DHT22;5195;48.562;9.192;2023-12-20T06:13:28;7.70;64.20
10300;DHT22;5195;48.562;9.192;2023-12-20T06:15:54;7.80;64.20
10300;DHT22;5195;48.562;9.192;2023-12-20T06:18:20;8.00;63.50
10300;DHT22;5195;48.562;9.192;2023-12-20T06:20:46;7.90;63.10
10300;DHT22;5195;48.562;9.192;2023-12-20T06:23:12;8.20;63.60
10300;DHT22;5195;48.562;9.192;2023-12-20T06:25:38;8.20;62.80
10300;DHT22;5195;48.562;9.192;2023-12-20T06:28:04;8.10;62.60
10300;DHT22;5195;48.562;9.192;2023-12-20T06:30:29;7.80;63.20
10300;DHT22;5195;48.562;9.192;2023-12-20T06:32:55;7.60;63.80
10300;DHT22;5195;48.562;9.192;2023-12-20T06:35:24;7.70;64.30
10300;DHT22;5195;48.562;9.192;2023-12-20T06:37:50;8.20;63.00
10300;DHT22;5195;48.562;9.192;2023-12-20T06:40:16;8.20;63.00
10300;DHT22;5195;48.562;9.192;2023-12-20T06:42:42;7.90;63.30
10300;DHT22;5195;48.562;9.192;2023-12-20T06:45:08;7.80;63.20
10300;DHT22;5195;48.562;9.192;2023-12-20T06:47:33;7.90;63.70
10300;DHT22;5195;48.562;9.192;2023-12-20T06:49:59;8.10;63.30
10300;DHT22;5195;48.562;9.192;2023-12-20T06:52:24;8.40;62.80
10300;DHT22;5195;48.562;9.192;2023-12-20T06:54:51;8.00;63.10
10300;DHT22;5195;48.562;9.192;2023-12-20T06:57:16;8.00;63.10
10300;DHT22;5195;48.562;9.192;2023-12-20T06:59:42;7.80;63.70
10300;DHT22;5195;48.562;9.192;2023-12-20T07:02:08;7.50;64.90
10300;DHT22;5195;48.562;9.192;2023-12-20T07:04:39;7.50;64.90
10300;DHT22;5195;48.562;9.192;2023-12-20T07:07:04;7.60;65.00
10300;DHT22;5195;48.562;9.192;2023-12-20T07:09:30;7.60;64.70
10300;DHT22;5195;48.562;9.192;2023-12-20T07:11:55;7.50;64.90
10300;DHT22;5195;48.562;9.192;2023-12-20T07:14:21;7.60;65.00
10300;DHT22;5195;48.562;9.192;2023-12-20T07:16:47;7.70;64.80
10300;DHT22;5195;48.562;9.192;2023-12-20T07:19:12;7.50;65.10
10300;DHT22;5195;48.562;9.192;2023-12-20T07:21:38;7.40;65.60
10300;DHT22;5195;48.562;9.192;2023-12-20T07:24:03;7.60;65.80
10300;DHT22;5195;48.562;9.192;2023-12-20T07:26:30;7.90;64.90
10300;DHT22;5195;48.562;9.192;2023-12-20T07:28:56;8.20;64.00
10300;DHT22;5195;48.562;9.192;2023-12-20T07:31:21;8.40;63.10
10300;DHT22;5195;48.562;9.192;2023-12-20T07:33:47;8.30;63.00
10300;DHT22;5195;48.562;9.192;2023-12-20T07:36:12;8.30;63.20
10300;DHT22;5195;48.562;9.192;2023-12-20T07:38:38;8.20;63.20
10300;DHT22;5195;48.562;9.192;2023-12-20T07:41:04;8.20;63.40
10300;DHT22;5195;48.562;9.192;2023-12-20T07:43:31;8.10;63.40
10300;DHT22;5195;48.562;9.192;2023-12-20T07:45:57;8.40;63.00
10300;DHT22;5195;48.562;9.192;2023-12-20T07:48:24;8.40;63.00
10300;DHT22;5195;48.562;9.192;2023-12-20T07:50:49;8.30;62.80
10300;DHT22;5195;48.562;9.192;2023-12-20T07:53:15;8.10;63.40
10300;DHT22;5195;48.562;9.192;2023-12-20T07:55:41;8.10;63.80
10300;DHT22;5195;48.562;9.192;2023-12-20T07:58:06;8.10;63.70
10300;DHT22;5195;48.562;9.192;2023-12-20T08:00:32;8.10;63.80
10300;DHT22;5195;48.562;9.192;2023-12-20T08:02:57;8.40;63.40
10300;DHT22;5195;48.562;9.192;2023-12-20T08:05:23;8.60;62.80
10300;DHT22;5195;48.562;9.192;2023-12-20T08:07:48;8.50;62.70
10300;DHT22;5195;48.562;9.192;2023-12-20T08:10:14;8.20;63.10
10300;DHT22;5195;48.562;9.192;2023-12-20T08:12:40;8.00;63.70
10300;DHT22;5195;48.562;9.192;2023-12-20T08:15:06;7.80;64.30
10300;DHT22;5195;48.562;9.192;2023-12-20T08:17:31;7.90;64.70
10300;DHT22;5195;48.562;9.192;2023-12-20T08:19:58;8.20;63.80
10300;DHT22;5195;48.562;9.192;2023-12-20T08:22:23;8.20;63.80
10300;DHT22;5195;48.562;9.192;2023-12-20T08:24:49;8.00;64.20
10300;DHT22;5195;48.562;9.192;2023-12-20T08:27:14;8.10;64.40
10300;DHT22;5195;48.562;9.192;2023-12-20T08:29:40;8.10;64.20
10300;DHT22;5195;48.562;9.192;2023-12-20T08:32:05;8.20;64.20
10300;DHT22;5195;48.562;9.192;2023-12-20T08:34:31;8.50;63.60
10300;DHT22;5195;48.562;9.192;2023-12-20T08:36:56;8.70;62.80
10300;DHT22;5195;48.562;9.192;2023-12-20T08:39:22;8.90;62.10
10300;DHT22;5195;48.562;9.192;2023-12-20T09:15:20;9.80;58.80
10300;DHT22;5195;48.562;9.192;2023-12-20T09:17:46;9.50;58.90
10300;DHT22;5195;48.562;9.192;2023-12-20T09:20:11;9.30;59.30
10300;DHT22;5195;48.562;9.192;2023-12-20T09:22:37;9.40;59.40
10300;DHT22;5195;48.562;9.192;2023-12-20T09:25:04;8.70;60.30
10300;DHT22;5195;48.562;9.192;2023-12-20T09:27:30;8.80;60.30
10300;DHT22;5195;48.562;9.192;2023-12-20T09:29:56;8.70;60.10
10300;DHT22;5195;48.562;9.192;2023-12-20T09:32:21;8.60;60.10
10300;DHT22;5195;48.562;9.192;2023-12-20T09:34:47;8.60;59.70
10300;DHT22;5195;48.562;9.192;2023-12-20T09:37:13;8.70;58.40
10300;DHT22;5195;48.562;9.192;2023-12-20T09:39:38;8.90;57.60
10300;DHT22;5195;48.562;9.192;2023-12-20T09:42:04;9.00;56.70
10300;DHT22;5195;48.562;9.192;2023-12-20T09:44:30;9.10;56.10
10300;DHT22;5195;48.562;9.192;2023-12-20T09:46:56;8.90;56.70
10300;DHT22;5195;48.562;9.192;2023-12-20T09:49:21;8.90;56.60
10300;DHT22;5195;48.562;9.192;2023-12-20T09:51:47;9.10;55.90
10300;DHT22;5195;48.562;9.192;2023-12-20T09:54:14;9.30;55.20
10300;DHT22;5195;48.562;9.192;2023-12-20T09:56:38;9.20;55.60
10300;DHT22;5195;48.562;9.192;2023-12-20T09:59:04;9.40;54.90
10300;DHT22;5195;48.562;9.192;2023-12-20T10:01:30;9.40;54.90
10300;DHT22;5195;48.562;9.192;2023-12-20T10:03:55;9.60;54.70
10300;DHT22;5195;48.562;9.192;2023-12-20T10:06:22;10.00;53.10
10300;DHT22;5195;48.562;9.192;2023-12-20T10:08:47;10.00;53.10
10300;DHT22;5195;48.562;9.192;2023-12-20T10:11:13;9.90;54.40
10300;DHT22;5195;48.562;9.192;2023-12-20T10:13:42;9.80;53.80
10300;DHT22;5195;48.562;9.192;2023-12-20T10:16:09;9.90;52.70
10300;DHT22;5195;48.562;9.192;2023-12-20T10:18:35;10.10;51.20
10300;DHT22;5195;48.562;9.192;2023-12-20T10:21:01;10.10;51.20
10300;DHT22;5195;48.562;9.192;2023-12-20T10:23:28;10.20;51.40
10300;DHT22;5195;48.562;9.192;2023-12-20T10:25:59;10.00;51.90
10300;DHT22;5195;48.562;9.192;2023-12-20T10:28:25;9.70;53.30
10300;DHT22;5195;48.562;9.192;2023-12-20T10:30:50;9.70;52.60
10300;DHT22;5195;48.562;9.192;2023-12-20T10:33:26;9.60;53.40
10300;DHT22;5195;48.562;9.192;2023-12-20T10:35:52;9.50;54.00
10300;DHT22;5195;48.562;9.192;2023-12-20T10:38:17;9.40;54.70
10300;DHT22;5195;48.562;9.192;2023-12-20T10:40:43;9.30;55.10
10300;DHT22;5195;48.562;9.192;2023-12-20T10:43:10;9.40;53.80
10300;DHT22;5195;48.562;9.192;2023-12-20T10:45:35;9.60;52.10
10300;DHT22;5195;48.562;9.192;2023-12-20T10:48:01;9.60;52.50
10300;DHT22;5195;48.562;9.192;2023-12-20T10:50:27;9.40;53.00
10300;DHT22;5195;48.562;9.192;2023-12-20T10:52:52;9.10;53.70
10300;DHT22;5195;48.562;9.192;2023-12-20T10:55:18;9.00;54.20
10300;DHT22;5195;48.562;9.192;2023-12-20T10:57:43;8.90;54.50
10300;DHT22;5195;48.562;9.192;2023-12-20T11:00:09;9.10;54.10
10300;DHT22;5195;48.562;9.192;2023-12-20T11:02:38;9.80;52.60
10300;DHT22;5195;48.562;9.192;2023-12-20T11:05:06;9.80;51.90
10300;DHT22;5195;48.562;9.192;2023-12-20T11:10:12;9.70;52.80
10300;DHT22;5195;48.562;9.192;2023-12-20T11:12:41;9.50;54.00
10300;DHT22;5195;48.562;9.192;2023-12-20T11:15:05;9.50;54.00
10300;DHT22;5195;48.562;9.192;2023-12-20T11:17:31;9.50;51.50
10300;DHT22;5195;48.562;9.192;2023-12-20T11:22:27;9.40;52.40
10300;DHT22;5195;48.562;9.192;2023-12-20T11:24:52;9.20;53.00
10300;DHT22;5195;48.562;9.192;2023-12-20T11:27:18;9.10;53.50
10300;DHT22;5195;48.562;9.192;2023-12-20T11:29:43;9.20;52.20
10300;DHT22;5195;48.562;9.192;2023-12-20T11:34:56;9.30;52.90
10300;DHT22;5195;48.562;9.192;2023-12-20T11:37:21;9.20;53.40
10300;DHT22;5195;48.562;9.192;2023-12-20T11:40:07;9.40;51.40
10300;DHT22;5195;48.562;9.192;2023-12-20T11:42:22;9.50;51.80
10300;DHT22;5195;48.562;9.192;2023-12-20T11:44:48;9.60;49.80
10300;DHT22;5195;48.562;9.192;2023-12-20T11:47:17;9.70;50.20
10300;DHT22;5195;48.562;9.192;2023-12-20T11:49:42;9.50;50.80
10300;DHT22;5195;48.562;9.192;2023-12-20T11:52:08;9.50;48.40
10300;DHT22;5195;48.562;9.192;2023-12-20T11:54:34;9.80;47.30
10300;DHT22;5195;48.562;9.192;2023-12-20T11:56:59;10.00;45.70
10300;DHT22;5195;48.562;9.192;2023-12-20T11:59:25;9.80;47.60
10300;DHT22;5195;48.562;9.192;2023-12-20T12:01:50;9.60;48.90
10300;DHT22;5195;48.562;9.192;2023-12-20T12:04:17;9.60;48.80
10300;DHT22;5195;48.562;9.192;2023-12-20T12:06:43;9.60;48.70
10300;DHT22;5195;48.562;9.192;2023-12-20T12:09:08;9.40;49.20
10300;DHT22;5195;48.562;9.192;2023-12-20T12:11:33;9.50;47.80
10300;DHT22;5195;48.562;9.192;2023-12-20T12:13:59;9.50;48.60
10300;DHT22;5195;48.562;9.192;2023-12-20T12:16:25;9.60;46.90
10300;DHT22;5195;48.562;9.192;2023-12-20T12:18:57;9.70;47.30
10300;DHT22;5195;48.562;9.192;2023-12-20T12:21:23;9.70;45.80
10300;DHT22;5195;48.562;9.192;2023-12-20T12:23:50;9.90;45.70
10300;DHT22;5195;48.562;9.192;2023-12-20T12:26:15;9.90;45.70
10300;DHT22;5195;48.562;9.192;2023-12-20T12:28:41;9.70;46.60
10300;DHT22;5195;48.562;9.192;2023-12-20T12:31:06;9.70;45.80
10300;DHT22;5195;48.562;9.192;2023-12-20T12:33:32;9.60;46.70
10300;DHT22;5195;48.562;9.192;2023-12-20T12:35:57;9.60;46.60
10300;DHT22;5195;48.562;9.192;2023-12-20T12:38:23;9.70;46.20
10300;DHT22;5195;48.562;9.192;2023-12-20T12:40:49;9.80;46.20
10300;DHT22;5195;48.562;9.192;2023-12-20T12:43:14;9.60;46.90
10300;DHT22;5195;48.562;9.192;2023-12-20T12:45:40;9.30;48.00
10300;DHT22;5195;48.562;9.192;2023-12-20T12:48:05;9.00;49.00
10300;DHT22;5195;48.562;9.192;2023-12-20T12:50:31;8.70;49.70
10300;DHT22;5195;48.562;9.192;2023-12-20T12:52:57;8.80;49.00
10300;DHT22;5195;48.562;9.192;2023-12-20T12:55:23;8.80;49.00
10300;DHT22;5195;48.562;9.192;2023-12-20T12:57:48;8.70;49.60
10300;DHT22;5195;48.562;9.192;2023-12-20T13:00:16;8.80;48.10
10300;DHT22;5195;48.562;9.192;2023-12-20T13:02:41;9.10;48.10
10300;DHT22;5195;48.562;9.192;2023-12-20T13:05:08;9.30;47.10
10300;DHT22;5195;48.562;9.192;2023-12-20T13:07:34;9.50;46.80
10300;DHT22;5195;48.562;9.192;2023-12-20T13:09:59;9.70;46.20
10300;DHT22;5195;48.562;9.192;2023-12-20T13:12:25;9.50;47.10
10300;DHT22;5195;48.562;9.192;2023-12-20T13:14:50;9.50;46.90
10300;DHT22;5195;48.562;9.192;2023-12-20T13:17:16;9.30;47.70
10300;DHT22;5195;48.562;9.192;2023-12-20T13:19:42;9.40;47.50
10300;DHT22;5195;48.562;9.192;2023-12-20T13:22:08;9.30;48.10
10300;DHT22;5195;48.562;9.192;2023-12-20T13:24:34;9.30;47.00
10300;DHT22;5195;48.562;9.192;2023-12-20T13:26:59;9.50;46.30
10300;DHT22;5195;48.562;9.192;2023-12-20T13:29:25;9.20;47.90
10300;DHT22;5195;48.562;9.192;2023-12-20T13:31:55;8.90;48.60
10300;DHT22;5195;48.562;9.192;2023-12-20T13:34:20;8.90;48.60
10300;DHT22;5195;48.562;9.192;2023-12-20T13:36:46;9.00;47.80
10300;DHT22;5195;48.562;9.192;2023-12-20T13:39:12;9.30;46.90
10300;DHT22;5195;48.562;9.192;2023-12-20T13:41:37;9.20;47.40
10300;DHT22;5195;48.562;9.192;2023-12-20T13:44:03;9.20;46.60
10300;DHT22;5195;48.562;9.192;2023-12-20T13:46:29;9.00;48.20
10300;DHT22;5195;48.562;9.192;2023-12-20T13:48:55;8.90;48.10
10300;DHT22;5195;48.562;9.192;2023-12-20T13:51:20;9.00;47.40
10300;DHT22;5195;48.562;9.192;2023-12-20T13:53:46;8.90;47.90
10300;DHT22;5195;48.562;9.192;2023-12-20T13:56:11;8.80;48.50
10300;DHT22;5195;48.562;9.192;2023-12-20T13:58:37;8.80;47.70
10300;DHT22;5195;48.562;9.192;2023-12-20T14:01:03;8.90;48.00
10300;DHT22;5195;48.562;9.192;2023-12-20T14:03:29;9.00;47.60
10300;DHT22;5195;48.562;9.192;2023-12-20T14:05:54;9.20;46.60
10300;DHT22;5195;48.562;9.192;2023-12-20T14:08:20;9.10;47.30
10300;DHT22;5195;48.562;9.192;2023-12-20T14:10:45;9.20;46.80
10300;DHT22;5195;48.562;9.192;2023-12-20T14:13:11;9.40;46.40
10300;DHT22;5195;48.562;9.192;2023-12-20T14:15:37;9.40;46.70
10300;DHT22;5195;48.562;9.192;2023-12-20T14:18:06;9.40;46.70
10300;DHT22;5195;48.562;9.192;2023-12-20T14:20:35;9.10;47.60
10300;DHT22;5195;48.562;9.192;2023-12-20T14:23:01;9.10;47.10
10300;DHT22;5195;48.562;9.192;2023-12-20T14:25:28;9.00;47.80
10300;DHT22;5195;48.562;9.192;2023-12-20T14:27:53;9.00;47.10
10300;DHT22;5195;48.562;9.192;2023-12-20T14:30:19;9.00;47.80
10300;DHT22;5195;48.562;9.192;2023-12-20T14:32:45;8.80;48.00
10300;DHT22;5195;48.562;9.192;2023-12-20T14:35:11;8.80;48.00
10300;DHT22;5195;48.562;9.192;2023-12-20T14:37:36;9.00;47.50
10300;DHT22;5195;48.562;9.192;2023-12-20T14:40:09;9.20;47.60
10300;DHT22;5195;48.562;9.192;2023-12-20T14:42:31;9.10;48.00
10300;DHT22;5195;48.562;9.192;2023-12-20T14:44:56;8.70;48.70
10300;DHT22;5195;48.562;9.192;2023-12-20T14:47:23;8.80;48.00
10300;DHT22;5195;48.562;9.192;2023-12-20T14:49:48;8.80;48.00
10300;DHT22;5195;48.562;9.192;2023-12-20T14:52:14;9.00;47.90
10300;DHT22;5195;48.562;9.192;2023-12-20T14:54:39;9.10;47.80
10300;DHT22;5195;48.562;9.192;2023-12-20T14:57:05;8.90;48.30
10300;DHT22;5195;48.562;9.192;2023-12-20T14:59:31;8.60;49.60
10300;DHT22;5195;48.562;9.192;2023-12-20T15:01:56;8.30;50.00
10300;DHT22;5195;48.562;9.192;2023-12-20T15:04:22;8.10;50.70
10300;DHT22;5195;48.562;9.192;2023-12-20T15:06:47;8.10;50.40
10300;DHT22;5195;48.562;9.192;2023-12-20T15:09:14;8.40;51.00
10300;DHT22;5195;48.562;9.192;2023-12-20T15:11:39;8.40;50.40
10300;DHT22;5195;48.562;9.192;2023-12-20T15:14:05;8.40;50.10
10300;DHT22;5195;48.562;9.192;2023-12-20T15:16:32;8.60;49.80
10300;DHT22;5195;48.562;9.192;2023-12-20T15:18:57;8.50;50.10
10300;DHT22;5195;48.562;9.192;2023-12-20T15:21:23;8.30;50.90
10300;DHT22;5195;48.562;9.192;2023-12-20T15:23:48;8.00;51.50
10300;DHT22;5195;48.562;9.192;2023-12-20T15:26:20;8.00;51.10
10300;DHT22;5195;48.562;9.192;2023-12-20T15:28:46;8.30;50.70
10300;DHT22;5195;48.562;9.192;2023-12-20T15:31:12;8.50;50.20
10300;DHT22;5195;48.562;9.192;2023-12-20T15:33:40;8.50;50.60
10300;DHT22;5195;48.562;9.192;2023-12-20T15:36:07;8.20;51.10
10300;DHT22;5195;48.562;9.192;2023-12-20T15:38:33;8.20;51.40
10300;DHT22;5195;48.562;9.192;2023-12-20T15:40:58;8.20;51.40
10300;DHT22;5195;48.562;9.192;2023-12-20T15:43:24;8.00;51.90
10300;DHT22;5195;48.562;9.192;2023-12-20T15:45:50;7.80;52.40
10300;DHT22;5195;48.562;9.192;2023-12-20T15:48:16;7.50;53.80
10300;DHT22;5195;48.562;9.192;2023-12-20T15:50:41;7.50;53.20
10300;DHT22;5195;48.562;9.192;2023-12-20T15:53:07;7.60;52.80
10300;DHT22;5195;48.562;9.192;2023-12-20T15:55:33;7.60;52.80
10300;DHT22;5195;48.562;9.192;2023-12-20T15:57:58;7.50;53.20
10300;DHT22;5195;48.562;9.192;2023-12-20T16:00:24;7.30;53.50
10300;DHT22;5195;48.562;9.192;2023-12-20T16:02:49;7.10;53.90
10300;DHT22;5195;48.562;9.192;2023-12-20T16:05:16;7.50;53.20
10300;DHT22;5195;48.562;9.192;2023-12-20T16:07:41;7.60;53.30
10300;DHT22;5195;48.562;9.192;2023-12-20T16:10:07;7.90;52.50
10300;DHT22;5195;48.562;9.192;2023-12-20T16:12:32;8.10;52.00
10300;DHT22;5195;48.562;9.192;2023-12-20T16:14:58;8.20;51.40
10300;DHT22;5195;48.562;9.192;2023-12-20T16:17:23;8.00;51.80
10300;DHT22;5195;48.562;9.192;2023-12-20T16:19:49;8.00;52.00
10300;DHT22;5195;48.562;9.192;2023-12-20T16:22:15;8.10;51.70
10300;DHT22;5195;48.562;9.192;2023-12-20T16:24:40;8.30;51.40
10300;DHT22;5195;48.562;9.192;2023-12-20T16:27:06;8.40;51.20
10300;DHT22;5195;48.562;9.192;2023-12-20T16:29:31;8.10;51.50
10300;DHT22;5195;48.562;9.192;2023-12-20T16:31:58;8.10;51.60
10300;DHT22;5195;48.562;9.192;2023-12-20T16:34:24;8.10;51.20